Time;durP1;ratioP1;P1;durP2;ratioP2;P2;SDS_P1;SDS_P2;PMS_P1;PMS_P2;Temp;Humidity;BMP_temperature;BMP_pressure;BME280_temperature;BME280_humidity;BME280_pressure;Samples;Min_cycle;Max_cycle;Signal;HPM_P1;HPM_P2
2022/05/29 00:00:13;;;;;;;;;;;;;;;12.55;48.58;101253.13;5025449;28;19922;-74
2022/05/29 00:02:38;;;;;;;;;;;;;;;12.75;48.24;101252.72;5017557;28;19964;-74
2022/05/29 00:05:04;;;;;;;;;;;;;;;12.53;49.17;101252.31;5025834;28;19975;-73
2022/05/29 00:07:30;;;;;;;;;;;;;;;12.54;49.36;101257.47;5023010;28;19925;-74
2022/05/29 00:09:55;;;;;;;;;;;;;;;12.68;48.67;101256.31;5034055;28;19986;-80
2022/05/29 00:12:21;;;;;;;;;;;;;;;12.53;49.74;101254.91;5030728;28;19925;-79
2022/05/29 00:14:48;;;;;;;;;;;;;;;12.44;49.29;101247.25;5032361;28;19943;-79
2022/05/29 00:17:14;;;;;;;;;;;;;;;12.44;49.19;101249.84;5025679;28;19936;-79
2022/05/29 00:19:39;;;;;;;;;;;;;;;12.60;50.19;101246.09;5029464;28;19925;-79
2022/05/29 00:22:05;;;;;;;;;;;;;;;12.36;50.46;101250.03;5033544;28;21917;-79
2022/05/29 00:24:30;;;;;;;;;;;;;;;12.43;51.02;101238.56;5025597;28;19925;-80
2022/05/29 00:26:56;;;;;;;;;;;;;;;12.40;50.30;101237.78;5025622;28;20413;-80
2022/05/29 00:29:21;;;;;;;;;;;;;;;12.48;50.64;101234.09;5034118;28;19925;-79
2022/05/29 00:31:47;;;;;;;;;;;;;;;12.24;50.80;101232.03;5022172;28;19924;-78
2022/05/29 00:34:12;;;;;;;;;;;;;;;12.30;51.03;101233.66;5029709;28;20348;-79
2022/05/29 00:36:38;;;;;;;;;;;;;;;12.40;50.83;101229.97;5029994;28;19932;-79
2022/05/29 00:39:04;;;;;;;;;;;;;;;12.37;50.69;101228.28;5009219;28;19953;-79
2022/05/29 00:41:31;;;;;;;;;;;;;;;12.14;51.08;101230.50;5031689;28;20394;-79
2022/05/29 00:44:17;;;;;;;;;;;;;;;12.20;51.83;101225.16;5029558;28;19929;-79
2022/05/29 00:46:44;;;;;;;;;;;;;;;11.96;51.67;101229.13;5023267;28;19955;-79
2022/05/29 00:49:10;;;;;;;;;;;;;;;12.27;50.88;101226.78;5039100;28;19968;-78
2022/05/29 00:51:38;;;;;;;;;;;;;;;12.07;51.13;101221.94;5026843;28;19933;-79
2022/05/29 00:54:04;;;;;;;;;;;;;;;12.01;52.02;101231.63;5027088;28;19945;-79
2022/05/29 00:56:31;;;;;;;;;;;;;;;12.16;51.24;101220.03;5021255;28;20022;-79
2022/05/29 00:58:57;;;;;;;;;;;;;;;11.98;51.54;101227.34;5029458;28;19956;-79
2022/05/29 01:01:23;;;;;;;;;;;;;;;11.78;52.62;101231.19;5024978;28;19931;-78
2022/05/29 01:03:48;;;;;;;;;;;;;;;12.17;51.88;101216.56;5026699;28;20306;-79
2022/05/29 01:06:14;;;;;;;;;;;;;;;12.06;51.43;101212.44;5031539;28;20718;-78
2022/05/29 01:08:39;;;;;;;;;;;;;;;12.12;52.40;101216.66;5028873;28;19947;-79
2022/05/29 01:11:20;;;;;;;;;;;;;;;12.03;53.13;101207.28;5047589;28;20701;-78
2022/05/29 01:13:52;;;;;;;;;;;;;;;12.07;52.40;101206.31;5029181;28;19931;-79
2022/05/29 01:16:23;;;;;;;;;;;;;;;11.98;51.84;101205.63;5028467;28;20710;-79
2022/05/29 01:19:09;;;;;;;;;;;;;;;11.95;52.66;101211.78;5030730;28;19929;-78
2022/05/29 01:21:49;;;;;;;;;;;;;;;11.81;52.96;101211.19;5031544;28;19949;-78
2022/05/29 01:24:33;;;;;;;;;;;;;;;12.07;52.41;101202.84;5028303;28;19928;-79
2022/05/29 01:26:59;;;;;;;;;;;;;;;11.78;52.85;101219.06;5027131;28;19929;-79
2022/05/29 01:29:39;;;;;;;;;;;;;;;12.00;52.85;101203.88;5031000;28;19983;-79
2022/05/29 01:32:12;;;;;;;;;;;;;;;12.14;52.52;101204.47;5031953;28;19959;-77
2022/05/29 01:34:41;;;;;;;;;;;;;;;12.05;52.46;101202.03;5024832;28;20299;-74
2022/05/29 01:37:13;;;;;;;;;;;;;;;12.16;52.29;101209.63;5026046;28;19931;-74
2022/05/29 01:39:57;;;;;;;;;;;;;;;11.86;53.07;101205.91;5026835;28;20317;-74
2022/05/29 01:42:40;;;;;;;;;;;;;;;12.07;52.29;101202.84;5037637;28;20401;-74
2022/05/29 01:45:16;;;;;;;;;;;;;;;12.08;52.73;101201.97;5024524;28;19941;-74
2022/05/29 01:47:55;;;;;;;;;;;;;;;12.04;52.72;101197.72;5029659;28;19925;-74
2022/05/29 01:50:34;;;;;;;;;;;;;;;11.63;54.13;101208.06;5024117;28;19925;-74
2022/05/29 01:53:08;;;;;;;;;;;;;;;11.57;54.53;101209.91;5019718;28;19925;-74
2022/05/29 01:55:36;;;;;;;;;;;;;;;12.00;53.14;101196.06;5029718;28;19925;-74
2022/05/29 01:58:03;;;;;;;;;;;;;;;12.01;52.81;101201.22;5022811;28;20447;-74
2022/05/29 02:00:29;;;;;;;;;;;;;;;12.19;53.03;101199.13;5024825;28;19995;-74
2022/05/29 02:03:13;;;;;;;;;;;;;;;12.09;52.53;101195.91;5032473;28;20402;-74
2022/05/29 02:05:45;;;;;;;;;;;;;;;11.41;55.16;101202.41;5029158;28;19940;-74
2022/05/29 02:08:13;;;;;;;;;;;;;;;11.73;54.12;101194.88;5032080;28;19920;-74
2022/05/29 02:10:57;;;;;;;;;;;;;;;11.87;53.82;101190.25;5026657;28;19983;-74
2022/05/29 02:13:31;;;;;;;;;;;;;;;12.04;53.35;101190.75;5029855;28;20027;-77
2022/05/29 02:16:31;;;;;;;;;;;;;;;12.17;53.09;101193.13;5024374;28;19971;-77
2022/05/29 02:19:10;;;;;;;;;;;;;;;12.02;53.37;101189.94;4955834;28;20308;-77
2022/05/29 02:21:48;;;;;;;;;;;;;;;12.04;53.92;101188.16;5018670;28;19925;-77
2022/05/29 02:24:16;;;;;;;;;;;;;;;12.13;52.55;101181.91;5026522;28;19917;-77
2022/05/29 02:26:44;;;;;;;;;;;;;;;11.86;54.14;101182.47;5021279;28;20027;-77
2022/05/29 02:29:11;;;;;;;;;;;;;;;12.09;53.36;101178.53;5024356;28;19929;-77
2022/05/29 02:31:48;;;;;;;;;;;;;;;11.89;53.57;101185.03;5021560;28;19972;-77
2022/05/29 02:34:17;;;;;;;;;;;;;;;12.02;53.17;101176.06;5032015;28;19928;-77
2022/05/29 02:36:42;;;;;;;;;;;;;;;12.07;53.42;101176.81;5029021;28;20012;-77
2022/05/29 02:39:20;;;;;;;;;;;;;;;11.79;54.34;101175.66;5021339;28;20001;-77
2022/05/29 02:41:52;;;;;;;;;;;;;;;11.54;54.75;101188.28;5031350;28;20039;-79
2022/05/29 02:44:37;;;;;;;;;;;;;;;11.66;54.74;101176.78;5022972;28;20015;-79
2022/05/29 02:47:22;;;;;;;;;;;;;;;11.80;54.61;101180.00;5022551;28;19930;-79
2022/05/29 02:50:07;;;;;;;;;;;;;;;11.92;53.93;101180.59;5025839;28;19933;-79
2022/05/29 02:52:32;;;;;;;;;;;;;;;11.66;54.46;101181.97;4979723;28;19929;-78
2022/05/29 02:54:58;;;;;;;;;;;;;;;11.88;54.75;101173.75;5026077;28;20563;-79
2022/05/29 02:57:23;;;;;;;;;;;;;;;11.78;54.23;101172.19;5020958;28;19928;-78
2022/05/29 02:59:54;;;;;;;;;;;;;;;12.08;53.62;101170.72;5025932;28;19987;-79
2022/05/29 03:02:22;;;;;;;;;;;;;;;12.05;53.60;101174.25;5023086;28;20359;-79
2022/05/29 03:04:52;;;;;;;;;;;;;;;11.73;54.43;101168.84;5025291;28;19978;-79
2022/05/29 03:07:23;;;;;;;;;;;;;;;11.67;55.05;101166.34;5028959;28;19932;-79
2022/05/29 03:09:55;;;;;;;;;;;;;;;11.76;54.41;101163.56;5020786;28;19932;-79
2022/05/29 03:12:23;;;;;;;;;;;;;;;11.93;54.33;101161.50;5023326;28;19920;-79
2022/05/29 03:14:51;;;;;;;;;;;;;;;11.86;54.55;101159.88;5022946;28;19918;-79
2022/05/29 03:17:19;;;;;;;;;;;;;;;11.70;54.64;101163.69;5032690;28;20024;-79
2022/05/29 03:19:47;;;;;;;;;;;;;;;11.73;54.48;101161.03;5033020;28;19955;-79
2022/05/29 03:22:16;;;;;;;;;;;;;;;11.74;54.49;101162.72;5027942;28;20453;-79
2022/05/29 03:24:45;;;;;;;;;;;;;;;11.76;54.23;101162.72;5021448;28;19925;-79
2022/05/29 03:27:26;;;;;;;;;;;;;;;11.49;55.68;101167.56;5023141;28;20374;-78
2022/05/29 03:29:56;;;;;;;;;;;;;;;11.56;55.14;101169.13;5026998;28;19972;-79
2022/05/29 03:32:22;;;;;;;;;;;;;;;11.75;54.83;101161.00;5032679;28;19921;-78
2022/05/29 03:34:47;;;;;;;;;;;;;;;11.85;54.03;101162.53;5021694;28;19925;-78
2022/05/29 03:37:12;;;;;;;;;;;;;;;11.85;54.25;101162.53;5024200;28;19937;-78
2022/05/29 03:39:38;;;;;;;;;;;;;;;11.85;54.26;101163.41;5028798;28;20346;-78
2022/05/29 03:42:03;;;;;;;;;;;;;;;11.77;54.36;101161.84;5022426;28;19931;-79
2022/05/29 03:44:29;;;;;;;;;;;;;;;11.80;54.06;101161.78;5034575;28;20299;-79
2022/05/29 03:46:56;;;;;;;;;;;;;;;11.78;54.18;101158.31;5026843;28;19925;-79
2022/05/29 03:49:22;;;;;;;;;;;;;;;11.64;54.62;101153.41;5024254;28;19940;-78
2022/05/29 03:51:47;;;;;;;;;;;;;;;11.94;54.53;101154.53;5027007;28;20024;-78
2022/05/29 03:54:13;;;;;;;;;;;;;;;11.82;54.85;101154.78;5036085;28;20066;-78
2022/05/29 03:56:38;;;;;;;;;;;;;;;11.65;55.63;101151.66;5036270;28;19929;-79
2022/05/29 03:59:04;;;;;;;;;;;;;;;11.72;55.55;101151.50;5034739;28;19925;-79
2022/05/29 04:01:29;;;;;;;;;;;;;;;11.48;55.61;101150.22;5032382;28;20020;-78
2022/05/29 04:03:55;;;;;;;;;;;;;;;11.44;56.07;101155.53;5032714;28;19964;-79
2022/05/29 04:06:27;;;;;;;;;;;;;;;11.45;56.08;101144.22;5031723;28;19920;-79
2022/05/29 04:14:22;;;;;;;;;;;;;;;11.54;56.52;101151.84;5035957;28;20054;-77
2022/05/29 04:16:48;;;;;;;;;;;;;;;11.51;56.73;101142.38;5031946;28;19921;-77
2022/05/29 04:19:14;;;;;;;;;;;;;;;11.65;55.69;101142.09;5037743;28;19925;-77
2022/05/29 04:21:39;;;;;;;;;;;;;;;11.52;55.51;101135.41;5036562;28;19925;-77
2022/05/29 04:24:05;;;;;;;;;;;;;;;11.80;55.47;101133.16;5027867;28;19929;-77
2022/05/29 04:26:32;;;;;;;;;;;;;;;11.49;56.06;101125.94;5032596;28;19974;-77
2022/05/29 04:28:58;;;;;;;;;;;;;;;11.55;56.45;101131.03;5032056;28;20019;-77
2022/05/29 04:31:23;;;;;;;;;;;;;;;11.51;57.26;101128.50;5029650;28;20441;-77
2022/05/29 04:33:48;;;;;;;;;;;;;;;11.73;55.77;101123.72;5032253;28;20410;-77
2022/05/29 04:36:14;;;;;;;;;;;;;;;11.83;55.84;101120.91;5028223;28;19930;-77
2022/05/29 04:38:39;;;;;;;;;;;;;;;11.71;56.73;101122.91;5032261;28;20398;-77
2022/05/29 04:41:06;;;;;;;;;;;;;;;11.87;55.39;101119.09;5030054;28;19922;-77
2022/05/29 04:43:31;;;;;;;;;;;;;;;12.00;54.76;101120.56;5024480;28;19952;-77
2022/05/29 04:45:56;;;;;;;;;;;;;;;11.99;55.22;101117.09;5014035;28;19952;-77
2022/05/29 04:48:22;;;;;;;;;;;;;;;12.13;55.58;101120.25;5029201;28;19956;-77
2022/05/29 04:50:48;;;;;;;;;;;;;;;12.06;55.17;101123.03;5033425;28;19928;-77
2022/05/29 04:53:13;;;;;;;;;;;;;;;11.64;56.33;101123.91;5031484;28;19925;-77
2022/05/29 04:55:39;;;;;;;;;;;;;;;11.63;56.10;101124.78;5026259;28;19929;-77
2022/05/29 04:58:05;;;;;;;;;;;;;;;11.80;55.60;101120.13;5034059;28;19928;-78
2022/05/29 05:00:30;;;;;;;;;;;;;;;11.86;55.21;101114.81;5031636;28;19921;-79
2022/05/29 05:02:56;;;;;;;;;;;;;;;11.78;55.74;101114.06;5029723;28;19921;-79
2022/05/29 05:05:21;;;;;;;;;;;;;;;11.92;55.50;101118.09;5029215;28;19929;-79
2022/05/29 05:07:46;;;;;;;;;;;;;;;11.83;55.35;101120.06;5034138;28;19921;-79
2022/05/29 05:10:15;;;;;;;;;;;;;;;11.41;57.19;101124.38;5028176;28;19933;-79
2022/05/29 05:12:40;;;;;;;;;;;;;;;11.84;56.13;101116.56;5035560;28;19924;-78
2022/05/29 05:15:06;;;;;;;;;;;;;;;12.07;55.71;101107.38;5034459;28;20060;-79
2022/05/29 05:17:32;;;;;;;;;;;;;;;12.23;55.14;101107.03;5037705;28;19929;-78
2022/05/29 05:19:57;;;;;;;;;;;;;;;12.09;55.40;101104.75;5038051;28;19966;-78
2022/05/29 05:22:22;;;;;;;;;;;;;;;12.24;55.16;101109.63;5037180;28;19950;-79
2022/05/29 05:24:48;;;;;;;;;;;;;;;12.13;55.02;101111.59;5038939;28;19922;-78
2022/05/29 05:27:14;;;;;;;;;;;;;;;11.93;55.80;101116.38;5066877;28;19927;-78
2022/05/29 05:29:39;;;;;;;;;;;;;;;11.86;55.87;101109.59;5029914;28;20434;-78
2022/05/29 05:32:05;;;;;;;;;;;;;;;11.48;56.92;101113.81;5026118;28;19929;-78
2022/05/29 05:34:31;;;;;;;;;;;;;;;11.93;55.61;101112.03;5029395;28;19925;-78
2022/05/29 05:36:56;;;;;;;;;;;;;;;11.60;56.43;101111.84;5024639;28;20379;-79
2022/05/29 05:39:21;;;;;;;;;;;;;;;11.56;57.09;101111.06;5032661;28;20006;-78
2022/05/29 05:41:47;;;;;;;;;;;;;;;11.90;55.98;101103.41;5033528;28;19952;-78
2022/05/29 05:44:13;;;;;;;;;;;;;;;11.88;56.77;101103.47;5029498;28;19936;-79
2022/05/29 05:46:43;;;;;;;;;;;;;;;12.09;55.64;101096.94;5029435;28;19967;-78
2022/05/29 05:49:08;;;;;;;;;;;;;;;12.13;55.30;101092.53;5025549;28;19926;-78
2022/05/29 05:51:33;;;;;;;;;;;;;;;12.02;55.22;101098.81;5032057;28;19925;-78
2022/05/29 05:53:59;;;;;;;;;;;;;;;11.93;55.42;101093.81;5031606;28;20378;-74
2022/05/29 05:56:24;;;;;;;;;;;;;;;12.01;56.46;101096.22;5057309;28;19987;-74
2022/05/29 05:58:49;;;;;;;;;;;;;;;11.77;56.47;101091.56;5022909;28;20322;-73
2022/05/29 06:01:16;;;;;;;;;;;;;;;11.94;56.15;101094.66;5032414;28;19928;-77
2022/05/29 06:03:42;;;;;;;;;;;;;;;11.54;57.38;101092.88;5037702;28;19983;-77
2022/05/29 06:06:07;;;;;;;;;;;;;;;11.86;56.55;101094.81;5034317;28;20369;-77
2022/05/29 06:08:32;;;;;;;;;;;;;;;12.02;57.12;101088.41;5039116;28;19975;-77
2022/05/29 06:10:58;;;;;;;;;;;;;;;11.90;56.59;101098.22;5058789;28;20047;-78
2022/05/29 06:13:23;;;;;;;;;;;;;;;12.09;57.01;101091.72;5034293;28;19925;-78
2022/05/29 06:15:49;;;;;;;;;;;;;;;12.32;56.24;101097.28;5027804;28;19918;-78
2022/05/29 06:18:15;;;;;;;;;;;;;;;12.35;56.00;101086.78;5034673;28;19917;-78
2022/05/29 06:20:41;;;;;;;;;;;;;;;11.97;56.64;101092.00;5029710;28;20556;-78
2022/05/29 06:23:07;;;;;;;;;;;;;;;12.08;56.40;101090.00;5029043;28;20341;-78
2022/05/29 06:25:32;;;;;;;;;;;;;;;12.38;55.42;101085.84;5029138;28;19925;-78
2022/05/29 06:27:58;;;;;;;;;;;;;;;11.88;57.06;101100.84;5021123;28;19921;-78
2022/05/29 06:30:23;;;;;;;;;;;;;;;12.05;55.77;101088.34;5028328;28;19928;-78
2022/05/29 06:32:49;;;;;;;;;;;;;;;12.13;55.40;101085.53;5028025;28;19922;-77
2022/05/29 06:35:15;;;;;;;;;;;;;;;11.93;55.98;101101.63;5029945;28;19925;-79
2022/05/29 06:37:41;;;;;;;;;;;;;;;12.15;55.87;101090.72;5034710;28;19959;-78
2022/05/29 06:40:08;;;;;;;;;;;;;;;12.28;55.84;101092.16;5025633;28;20024;-80
2022/05/29 06:42:33;;;;;;;;;;;;;;;12.39;55.51;101085.84;5023830;28;19937;-80
2022/05/29 06:44:59;;;;;;;;;;;;;;;12.51;54.82;101087.28;5028646;28;19931;-80
2022/05/29 06:47:24;;;;;;;;;;;;;;;12.43;55.43;101084.84;5030707;28;20019;-80
2022/05/29 06:49:50;;;;;;;;;;;;;;;12.67;54.52;101080.81;5018412;28;20016;-80
2022/05/29 06:52:15;;;;;;;;;;;;;;;12.57;54.23;101080.19;5028200;28;19986;-80
2022/05/29 06:54:40;;;;;;;;;;;;;;;12.31;55.96;101079.91;5029452;28;20406;-79
2022/05/29 06:57:06;;;;;;;;;;;;;;;12.61;55.50;101074.03;5018996;28;19971;-80
2022/05/29 07:06:58;;;;;;;;;;;;;;;12.56;54.59;101078.50;5030249;28;19921;-79
2022/05/29 07:07:48;;;;;;;;;;;;;;;12.24;55.35;101075.75;5037065;28;19986;-79
2022/05/29 07:10:13;;;;;;;;;;;;;;;12.24;55.56;101075.75;5031254;28;19940;-80
2022/05/29 07:12:39;;;;;;;;;;;;;;;12.07;55.40;101076.13;5032401;28;19990;-79
2022/05/29 07:15:08;;;;;;;;;;;;;;;12.06;55.30;101079.63;5040917;28;19928;-79
2022/05/29 07:17:34;;;;;;;;;;;;;;;12.15;55.23;101080.31;5036031;28;20020;-79
2022/05/29 07:20:00;;;;;;;;;;;;;;;12.06;55.18;101084.00;5031648;28;20007;-79
2022/05/29 07:22:30;;;;;;;;;;;;;;;12.30;54.92;101078.22;5030984;28;20514;-79
2022/05/29 07:24:56;;;;;;;;;;;;;;;12.42;54.56;101075.31;5031403;28;19929;-79
2022/05/29 07:27:21;;;;;;;;;;;;;;;12.34;54.46;101076.38;5033259;28;20859;-79
2022/05/29 07:29:49;;;;;;;;;;;;;;;12.50;53.81;101075.13;5043673;28;22807;-80
2022/05/29 07:32:14;;;;;;;;;;;;;;;12.33;53.67;101072.09;5026316;28;19947;-79
2022/05/29 07:34:43;;;;;;;;;;;;;;;12.50;53.77;101065.59;5025372;28;19925;-79
2022/05/29 07:37:10;;;;;;;;;;;;;;;12.22;52.98;101071.44;5026614;28;19979;-79
2022/05/29 07:39:37;;;;;;;;;;;;;;;12.35;52.42;101065.09;5028476;28;19921;-79
2022/05/29 07:44:47;;;;;;;;;;;;;;;12.35;51.54;101065.94;5028869;28;19923;-79
2022/05/29 07:47:12;;;;;;;;;;;;;;;12.44;51.05;101063.13;5031370;28;20418;-79
2022/05/29 07:49:41;;;;;;;;;;;;;;;12.45;50.71;101062.22;5006143;28;19926;-79
2022/05/29 07:52:06;;;;;;;;;;;;;;;12.32;51.50;101072.97;5022820;28;19959;-79
2022/05/29 07:54:31;;;;;;;;;;;;;;;12.47;50.57;101067.41;5026589;28;20429;-79
2022/05/29 07:56:57;;;;;;;;;;;;;;;12.52;51.46;101060.31;5030697;28;19928;-79
2022/05/29 07:59:22;;;;;;;;;;;;;;;12.49;50.97;101070.81;5035529;28;19925;-79
2022/05/29 08:01:48;;;;;;;;;;;;;;;12.53;51.35;101065.53;5031309;28;19921;-79
2022/05/29 08:04:14;;;;;;;;;;;;;;;12.67;50.76;101065.19;5036227;28;19982;-79
2022/05/29 08:06:39;;;;;;;;;;;;;;;12.61;51.31;101071.41;5034202;28;19929;-79
2022/05/29 08:09:05;;;;;;;;;;;;;;;12.51;51.02;101063.84;5033648;28;19925;-79
2022/05/29 08:11:30;;;;;;;;;;;;;;;12.55;50.98;101063.75;5028968;28;19925;-79
2022/05/29 08:13:55;;;;;;;;;;;;;;;12.68;50.24;101063.44;5040663;28;19920;-79
2022/05/29 08:16:21;;;;;;;;;;;;;;;12.69;51.24;101059.94;5033414;28;20504;-79
2022/05/29 08:18:47;;;;;;;;;;;;;;;12.62;50.38;101061.84;5063072;28;19925;-79
2022/05/29 08:21:12;;;;;;;;;;;;;;;12.66;50.48;101064.31;5032064;28;20361;-79
2022/05/29 08:23:38;;;;;;;;;;;;;;;12.53;50.84;101062.94;5035174;28;19966;-79
2022/05/29 08:31:31;;;;;;;;;;;;;;;12.54;51.98;101062.03;5027715;28;20071;-79
2022/05/29 08:33:56;;;;;;;;;;;;;;;12.38;51.06;101057.19;5034502;28;20012;-79
2022/05/29 08:36:24;;;;;;;;;;;;;;;12.37;52.19;101058.94;5033653;28;19917;-79
2022/05/29 08:38:52;;;;;;;;;;;;;;;12.54;51.66;101055.97;5031051;28;20023;-80
2022/05/29 08:41:40;;;;;;;;;;;;;;;12.45;51.57;101058.78;5036281;28;20302;-79
2022/05/29 08:44:17;;;;;;;;;;;;;;;12.21;52.45;101059.34;5029871;28;20691;-79
2022/05/29 08:46:49;;;;;;;;;;;;;;;12.52;51.29;101060.31;5022394;28;20310;-79
2022/05/29 08:49:20;;;;;;;;;;;;;;;12.63;50.53;101056.59;5030480;28;20044;-79
2022/05/29 08:52:09;;;;;;;;;;;;;;;12.64;49.94;101060.91;5022199;28;20533;-79
2022/05/29 08:54:46;;;;;;;;;;;;;;;12.68;50.65;101058.22;5035375;28;20459;-80
2022/05/29 08:57:16;;;;;;;;;;;;;;;12.62;51.14;101052.28;5038980;28;19916;-79
2022/05/29 08:59:50;;;;;;;;;;;;;;;12.69;51.25;101062.56;5041763;28;19979;-79
2022/05/29 09:02:15;;;;;;;;;;;;;;;12.96;51.12;101047.06;5031375;28;19928;-79
2022/05/29 09:04:52;;;;;;;;;;;;;;;12.76;51.63;101059.75;5015500;28;19921;-79
2022/05/29 09:07:18;;;;;;;;;;;;;;;12.67;50.92;101054.75;5036589;28;20389;-79
2022/05/29 09:09:48;;;;;;;;;;;;;;;12.78;51.70;101052.72;5039848;28;20409;-79
2022/05/29 09:12:17;;;;;;;;;;;;;;;12.68;51.50;101056.50;5033860;28;19952;-79
2022/05/29 09:14:47;;;;;;;;;;;;;;;12.78;51.58;101057.13;5032430;28;19917;-79
2022/05/29 09:17:35;;;;;;;;;;;;;;;12.84;52.07;101052.56;5034391;28;19917;-79
2022/05/29 09:20:03;;;;;;;;;;;;;;;12.89;52.58;101049.88;5032533;28;20015;-79
2022/05/29 09:22:32;;;;;;;;;;;;;;;12.86;52.40;101050.81;5037876;28;19917;-79
2022/05/29 09:25:04;;;;;;;;;;;;;;;13.02;51.59;101046.03;5039908;28;19929;-80
2022/05/29 09:27:30;;;;;;;;;;;;;;;12.75;52.58;101049.38;5027076;28;19934;-80
2022/05/29 09:29:55;;;;;;;;;;;;;;;12.98;52.51;101041.81;5036214;28;19925;-79
2022/05/29 09:32:28;;;;;;;;;;;;;;;12.97;52.96;101040.94;5050322;28;19920;-79
2022/05/29 09:35:01;;;;;;;;;;;;;;;12.80;51.77;101034.47;5031409;28;20096;-79
2022/05/29 09:37:37;;;;;;;;;;;;;;;12.87;51.79;101033.41;5035140;28;19921;-79
2022/05/29 09:40:03;;;;;;;;;;;;;;;13.03;51.43;101030.34;5032840;28;19925;-79
2022/05/29 09:42:33;;;;;;;;;;;;;;;13.10;50.70;101029.31;5022870;28;19921;-79
2022/05/29 09:45:24;;;;;;;;;;;;;;;13.27;50.23;101022.75;5039639;28;20073;-79
2022/05/29 09:50:40;;;;;;;;;;;;;;;13.16;50.66;101015.25;5039910;28;19982;-79
2022/05/29 09:53:14;;;;;;;;;;;;;;;13.16;52.19;101015.25;5053073;28;20406;-79
2022/05/29 09:55:47;;;;;;;;;;;;;;;13.12;52.38;101009.25;5035755;28;19952;-79
2022/05/29 09:58:17;;;;;;;;;;;;;;;13.22;50.53;101002.03;5041206;28;19925;-79
2022/05/29 10:01:01;;;;;;;;;;;;;;;13.23;51.40;101001.09;5036774;28;19921;-79
2022/05/29 10:03:36;;;;;;;;;;;;;;;13.16;51.89;101007.41;5034726;28;19936;-79
2022/05/29 10:06:14;;;;;;;;;;;;;;;13.22;50.73;101000.25;5025867;28;19955;-79
2022/05/29 10:08:40;;;;;;;;;;;;;;;13.30;50.14;101001.78;5041927;28;19934;-79
2022/05/29 10:11:12;;;;;;;;;;;;;;;13.52;49.97;100992.47;5043488;28;19921;-79
2022/05/29 10:13:41;;;;;;;;;;;;;;;13.65;50.67;100996.41;5030794;28;20008;-77
2022/05/29 10:16:07;;;;;;;;;;;;;;;13.57;49.66;100993.16;5030810;28;19921;-74
2022/05/29 10:18:36;;;;;;;;;;;;;;;13.45;48.88;100988.31;5040456;28;20329;-74
2022/05/29 10:21:07;;;;;;;;;;;;;;;13.39;48.89;100989.34;5024965;28;19917;-74
2022/05/29 10:23:34;;;;;;;;;;;;;;;13.36;49.80;100991.19;5025440;28;19948;-74
2022/05/29 10:26:04;;;;;;;;;;;;;;;13.53;49.56;100999.38;5037382;28;19925;-74
2022/05/29 10:28:31;;;;;;;;;;;;;;;13.43;50.09;100987.50;5024355;28;19929;-74
2022/05/29 10:30:58;;;;;;;;;;;;;;;13.51;49.28;100986.38;5027890;28;20607;-74
2022/05/29 10:33:25;;;;;;;;;;;;;;;13.54;49.65;100983.69;5033716;28;20023;-73
2022/05/29 10:35:54;;;;;;;;;;;;;;;13.38;49.05;100977.19;5037410;28;19921;-74
2022/05/29 10:38:19;;;;;;;;;;;;;;;13.30;49.55;100983.53;5036128;28;19921;-74
2022/05/29 10:40:46;;;;;;;;;;;;;;;13.35;49.79;100977.28;5033136;28;19925;-78
2022/05/29 10:43:12;;;;;;;;;;;;;;;13.41;49.42;100976.22;5027438;28;19921;-78
2022/05/29 10:45:45;;;;;;;;;;;;;;;13.36;48.98;100973.78;5019439;28;20009;-74
2022/05/29 10:48:11;;;;;;;;;;;;;;;13.56;49.38;100971.44;5015667;28;20004;-74
2022/05/29 10:50:48;;;;;;;;;;;;;;;13.68;51.05;100965.88;5018552;28;20001;-74
2022/05/29 10:53:18;;;;;;;;;;;;;;;13.60;47.97;100962.63;5032100;28;19931;-74
2022/05/29 10:55:59;;;;;;;;;;;;;;;13.58;47.26;100960.97;5045716;28;19920;-78
2022/05/29 10:58:33;;;;;;;;;;;;;;;13.52;46.65;100956.75;5031997;28;19925;-78
2022/05/29 11:03:17;;;;;;;;;;;;;;;13.44;47.82;100960.50;5046641;28;19921;-78
2022/05/29 11:03:56;;;;;;;;;;;;;;;13.40;47.45;100958.91;5034573;28;19925;-78
2022/05/29 11:06:33;;;;;;;;;;;;;;;13.39;47.94;100960.63;5047050;28;20447;-78
2022/05/29 11:09:02;;;;;;;;;;;;;;;13.44;47.63;100956.13;5025049;28;19925;-79
2022/05/29 11:11:37;;;;;;;;;;;;;;;13.51;47.61;100957.66;5033756;28;19924;-78
2022/05/29 11:14:11;;;;;;;;;;;;;;;13.22;50.04;100960.28;5040922;28;19928;-78
2022/05/29 11:16:39;;;;;;;;;;;;;;;13.14;50.30;100965.69;5028867;28;19920;-78
2022/05/29 11:19:23;;;;;;;;;;;;;;;13.11;51.97;100963.19;5013387;28;20306;-78
2022/05/29 11:22:11;;;;;;;;;;;;;;;13.18;52.21;100967.34;5035045;28;19921;-78
2022/05/29 11:25:09;;;;;;;;;;;;;;;13.13;50.94;100957.94;5017956;28;20303;-78
2022/05/29 11:27:41;;;;;;;;;;;;;;;13.16;51.21;100961.31;5033326;28;20007;-78
2022/05/29 11:30:15;;;;;;;;;;;;;;;12.90;50.02;100960.34;5044922;28;19923;-78
2022/05/29 11:33:01;;;;;;;;;;;;;;;13.12;49.19;100954.47;5037120;28;20394;-78
2022/05/29 11:35:39;;;;;;;;;;;;;;;13.26;49.11;100951.44;5026625;28;20602;-78
2022/05/29 11:38:24;;;;;;;;;;;;;;;13.12;52.74;100953.59;5039335;28;19970;-78
2022/05/29 11:40:52;;;;;;;;;;;;;;;13.15;55.28;100957.00;5042831;28;19928;-79
2022/05/29 11:43:41;;;;;;;;;;;;;;;13.23;54.25;100951.53;5031426;28;19921;-78
2022/05/29 11:52:15;;;;;;;;;;;;;;;13.41;49.31;100943.16;5028787;28;19932;-78
2022/05/29 11:54:45;;;;;;;;;;;;;;;13.44;49.53;100939.63;5028327;28;19925;-78
2022/05/29 11:57:19;;;;;;;;;;;;;;;13.41;49.20;100927.53;5022146;28;20067;-78
2022/05/29 11:59:47;;;;;;;;;;;;;;;13.66;49.12;100918.06;5031871;28;20415;-78
2022/05/29 12:02:15;;;;;;;;;;;;;;;13.67;48.51;100917.16;5032385;28;19917;-79
2022/05/29 12:04:44;;;;;;;;;;;;;;;13.79;47.58;100912.47;5028203;28;19921;-78
2022/05/29 12:07:16;;;;;;;;;;;;;;;13.87;48.04;100918.31;5029331;28;19921;-78
2022/05/29 12:09:45;;;;;;;;;;;;;;;13.66;47.27;100911.97;5041624;28;19921;-78
2022/05/29 12:12:12;;;;;;;;;;;;;;;13.70;47.64;100913.63;5040951;28;19917;-78
2022/05/29 12:14:40;;;;;;;;;;;;;;;13.76;48.17;100913.41;5041076;28;20382;-78
2022/05/29 12:17:15;;;;;;;;;;;;;;;13.76;49.14;100916.00;5031017;28;19925;-78
2022/05/29 12:19:43;;;;;;;;;;;;;;;13.56;49.26;100921.84;5034447;28;20425;-78
2022/05/29 12:22:10;;;;;;;;;;;;;;;13.65;49.63;100918.09;5034389;28;19921;-78
2022/05/29 12:24:38;;;;;;;;;;;;;;;13.65;50.10;100921.56;5038702;28;19921;-78
2022/05/29 12:27:03;;;;;;;;;;;;;;;13.49;49.82;100922.91;5044195;28;20301;-79
2022/05/29 12:29:41;;;;;;;;;;;;;;;13.56;49.25;100918.38;5031306;28;19925;-78
2022/05/29 12:32:21;;;;;;;;;;;;;;;13.40;50.72;100936.28;5042337;28;19976;-78
2022/05/29 12:34:46;;;;;;;;;;;;;;;13.43;52.25;100923.13;5034945;28;19931;-78
2022/05/29 12:37:27;;;;;;;;;;;;;;;13.35;53.43;100926.84;5039579;28;19917;-78
2022/05/29 12:40:11;;;;;;;;;;;;;;;13.43;55.43;100928.34;5032488;28;19921;-78
2022/05/29 12:42:45;;;;;;;;;;;;;;;13.32;56.23;100929.53;5061360;28;19921;-78
2022/05/29 12:45:34;;;;;;;;;;;;;;;13.29;56.65;100933.09;5034825;28;19913;-78
2022/05/29 12:48:02;;;;;;;;;;;;;;;13.13;57.24;100943.16;5020815;28;20035;-78
2022/05/29 12:50:37;;;;;;;;;;;;;;;13.08;58.51;100947.63;5032306;28;19979;-78
2022/05/29 12:53:19;;;;;;;;;;;;;;;13.09;59.42;100940.66;5016703;28;20204;-78
2022/05/29 12:56:03;;;;;;;;;;;;;;;12.90;62.57;100949.91;5022421;28;19917;-79
2022/05/29 12:58:38;;;;;;;;;;;;;;;12.99;62.25;100953.09;5034136;28;20294;-79
2022/05/29 13:01:13;;;;;;;;;;;;;;;13.01;61.84;100948.72;5035351;28;19936;-78
2022/05/29 13:03:57;;;;;;;;;;;;;;;13.17;60.74;100936.91;5028442;28;20366;-78
2022/05/29 13:06:26;;;;;;;;;;;;;;;13.05;60.09;100928.59;5035019;28;19991;-78
2022/05/29 13:09:03;;;;;;;;;;;;;;;13.10;61.95;100924.13;5028327;28;19921;-79
2022/05/29 13:11:35;;;;;;;;;;;;;;;13.05;59.35;100921.63;5030667;28;19931;-77
2022/05/29 13:14:03;;;;;;;;;;;;;;;13.09;58.72;100925.88;5032115;28;20374;-77
2022/05/29 13:16:33;;;;;;;;;;;;;;;13.27;60.74;100913.19;5050659;28;19953;-77